createdAt,value
2022-08-20T00:00:00.265Z,86.18
2022-08-20T00:01:04.540Z,87.00
2022-08-20T00:02:07.625Z,86.79
2022-08-20T00:03:17.530Z,87.02
2022-08-20T00:04:20.522Z,86.90
2022-08-20T00:05:27.054Z,86.75
2022-08-20T00:06:30.115Z,87.20
2022-08-20T00:07:33.047Z,87.29
2022-08-20T00:08:37.685Z,87.27
2022-08-20T00:09:41.854Z,86.88
2022-08-20T00:10:49.048Z,86.84
2022-08-20T00:11:56.749Z,86.06
2022-08-20T00:12:59.700Z,85.94
2022-08-20T00:14:05.934Z,85.02
2022-08-20T00:15:09.107Z,83.78
2022-08-20T00:16:13.564Z,83.82
2022-08-20T00:17:16.744Z,84.26
2022-08-20T00:18:21.170Z,82.93
2022-08-20T00:19:24.148Z,85.07
2022-08-20T00:20:35.068Z,86.54
2022-08-20T00:21:38.266Z,86.20
2022-08-20T00:22:41.407Z,84.11
2022-08-20T00:23:46.860Z,85.41
2022-08-20T00:24:49.741Z,85.34
2022-08-20T00:25:53.584Z,84.20
2022-08-20T00:26:56.502Z,85.74
2022-08-20T00:28:00.236Z,85.52
2022-08-20T00:29:03.147Z,84.92
2022-08-20T00:30:09.630Z,86.11
2022-08-20T00:31:18.059Z,86.27
2022-08-20T00:32:21.059Z,86.90
2022-08-20T00:33:25.237Z,86.29
2022-08-20T00:34:28.338Z,85.87
2022-08-20T00:35:35.200Z,86.97
2022-08-20T00:36:38.199Z,88.05
2022-08-20T00:37:41.211Z,87.67
2022-08-20T00:38:46.304Z,87.37
2022-08-20T00:39:49.308Z,88.01
2022-08-20T00:40:58.236Z,86.62
2022-08-20T00:42:03.925Z,89.00
2022-08-20T00:43:24.034Z,89.18
2022-08-20T00:44:27.196Z,87.34
2022-08-20T00:45:33.172Z,85.73
2022-08-20T00:46:37.588Z,84.41
2022-08-20T00:47:44.063Z,83.50
2022-08-20T00:48:57.567Z,83.74
2022-08-20T00:50:04.016Z,84.88
2022-08-20T00:51:41.650Z,83.77
2022-08-20T00:52:50.175Z,84.46
2022-08-20T00:53:56.950Z,85.04
2022-08-20T00:55:02.559Z,85.23
2022-08-20T00:56:08.722Z,85.58
2022-08-20T00:57:59.058Z,85.41
2022-08-20T00:58:55.404Z,85.43
2022-08-20T00:59:59.902Z,85.65
2022-08-20T01:01:03.095Z,83.29
2022-08-20T01:02:09.966Z,83.59
2022-08-20T01:03:16.879Z,83.97
2022-08-20T01:04:20.349Z,81.39
2022-08-20T01:05:27.847Z,84.20
2022-08-20T01:06:32.960Z,83.41
2022-08-20T01:07:37.451Z,83.75
2022-08-20T01:08:41.447Z,83.30
2022-08-20T01:09:58.331Z,83.14
2022-08-20T01:11:18.644Z,83.84
2022-08-20T01:12:24.104Z,85.12
2022-08-20T01:13:27.985Z,87.42
2022-08-20T01:14:36.709Z,88.54
2022-08-20T01:15:43.322Z,87.27
2022-08-20T01:16:49.444Z,87.83
2022-08-20T01:17:58.334Z,89.44
2022-08-20T01:19:02.924Z,90.10
2022-08-20T01:20:12.300Z,90.22
2022-08-20T01:21:19.468Z,89.49
2022-08-20T01:22:54.641Z,89.32
2022-08-20T01:24:16.858Z,89.20
2022-08-20T01:25:50.764Z,89.62
2022-08-20T01:26:55.309Z,89.45
2022-08-20T01:28:02.114Z,89.80
2022-08-20T01:29:18.528Z,90.18
2022-08-20T01:30:22.028Z,90.92
2022-08-20T01:31:28.244Z,89.92
2022-08-20T01:32:31.149Z,89.32
2022-08-20T01:33:34.152Z,89.31
2022-08-20T01:34:37.083Z,88.96
2022-08-20T01:35:42.824Z,89.25
2022-08-20T01:36:51.189Z,90.03
2022-08-20T01:37:56.374Z,91.75
2022-08-20T01:39:00.083Z,91.58
2022-08-20T01:40:09.361Z,92.49
2022-08-20T01:41:41.260Z,92.65
2022-08-20T01:42:54.016Z,92.13
2022-08-20T01:44:02.804Z,93.00
2022-08-20T01:45:07.954Z,92.46
2022-08-20T01:46:11.919Z,92.76
2022-08-20T01:47:29.710Z,92.97
2022-08-20T01:48:32.721Z,92.88
2022-08-20T01:49:35.967Z,94.23
2022-08-20T01:50:42.162Z,93.99
2022-08-20T01:51:49.060Z,92.69
2022-08-20T01:53:21.633Z,92.58
2022-08-20T01:54:25.776Z,92.79
2022-08-20T01:55:29.387Z,91.98
2022-08-20T01:56:34.110Z,91.87
2022-08-20T01:57:38.031Z,91.75
2022-08-20T01:58:45.917Z,92.11
2022-08-20T01:59:50.996Z,93.26
2022-08-20T02:00:53.883Z,91.89
2022-08-20T02:01:58.605Z,91.79
2022-08-20T02:03:03.681Z,90.67
2022-08-20T02:04:09.987Z,90.93
2022-08-20T02:05:19.572Z,91.22
2022-08-20T02:06:26.319Z,91.19
2022-08-20T02:07:30.361Z,91.21
2022-08-20T02:08:33.974Z,91.14
2022-08-20T02:09:39.621Z,90.86
2022-08-20T02:10:42.734Z,90.45
2022-08-20T02:11:46.941Z,90.46
2022-08-20T02:12:50.258Z,89.24
2022-08-20T02:13:56.717Z,89.19
2022-08-20T02:15:00.402Z,89.52
2022-08-20T02:16:03.874Z,88.44
2022-08-20T02:17:07.331Z,88.43
2022-08-20T02:18:15.666Z,88.64
2022-08-20T02:19:41.896Z,87.89
2022-08-20T02:20:46.267Z,88.01
2022-08-20T02:21:57.255Z,88.62
2022-08-20T02:23:01.070Z,88.06
2022-08-20T02:24:05.225Z,88.07
2022-08-20T02:25:11.935Z,87.34
2022-08-20T02:26:17.864Z,87.82
2022-08-20T02:27:24.154Z,89.03
2022-08-20T02:28:28.235Z,89.00
2022-08-20T02:29:31.210Z,88.64
2022-08-20T02:30:39.747Z,88.60
2022-08-20T02:32:24.573Z,88.89
2022-08-20T02:33:13.572Z,88.17
2022-08-20T02:34:21.634Z,87.49
2022-08-20T02:35:26.502Z,88.25
2022-08-20T02:36:30.599Z,85.58
2022-08-20T02:37:33.555Z,87.13
2022-08-20T02:38:39.418Z,88.25
2022-08-20T02:39:42.810Z,88.34
2022-08-20T02:40:47.039Z,88.35
2022-08-20T02:41:50.566Z,88.12
2022-08-20T02:42:54.867Z,88.20
2022-08-20T02:43:57.781Z,87.58
2022-08-20T02:45:00.855Z,87.83
2022-08-20T02:46:05.404Z,87.60
2022-08-20T02:47:08.509Z,86.68
2022-08-20T02:48:21.601Z,86.97
2022-08-20T02:49:24.828Z,87.22
2022-08-20T02:50:28.275Z,87.63
2022-08-20T02:51:31.510Z,87.69
2022-08-20T02:52:34.458Z,87.94
2022-08-20T02:53:41.490Z,88.83
2022-08-20T02:54:44.879Z,88.88
2022-08-20T02:55:47.954Z,88.45
2022-08-20T02:56:52.404Z,88.53
2022-08-20T02:58:00.331Z,89.03
2022-08-20T02:59:04.141Z,88.97
2022-08-20T03:00:15.944Z,88.19
2022-08-20T03:01:19.172Z,87.63
2022-08-20T03:02:22.184Z,87.33
2022-08-20T03:03:25.958Z,87.86
2022-08-20T03:04:30.597Z,87.63
2022-08-20T03:05:33.595Z,87.12
2022-08-20T03:06:36.549Z,85.00
2022-08-20T03:07:48.575Z,86.19
2022-08-20T03:08:51.736Z,88.80
2022-08-20T03:09:54.952Z,88.72
2022-08-20T03:10:58.285Z,88.48
2022-08-20T03:12:01.133Z,88.57
2022-08-20T03:13:05.432Z,88.27
2022-08-20T03:14:08.321Z,87.97
2022-08-20T03:15:17.363Z,87.95
2022-08-20T03:16:21.180Z,87.92
2022-08-20T03:17:24.223Z,88.51
2022-08-20T03:18:35.323Z,89.63
2022-08-20T03:19:38.556Z,86.94
2022-08-20T03:20:42.384Z,88.28
2022-08-20T03:21:50.015Z,88.96
2022-08-20T03:22:53.563Z,90.08
2022-08-20T03:23:56.664Z,89.83
2022-08-20T03:24:59.579Z,91.25
2022-08-20T03:26:05.975Z,91.14
2022-08-20T03:27:09.471Z,91.41
2022-08-20T03:28:15.981Z,91.75
2022-08-20T03:29:18.934Z,91.04
2022-08-20T03:30:26.092Z,90.12
2022-08-20T03:31:29.921Z,89.79
2022-08-20T03:32:33.074Z,89.61
2022-08-20T03:33:36.453Z,90.40
2022-08-20T03:34:46.236Z,90.70
2022-08-20T03:35:49.162Z,91.81
2022-08-20T03:36:52.121Z,91.88
2022-08-20T03:37:55.911Z,91.77
2022-08-20T03:39:04.444Z,91.32
2022-08-20T03:40:12.752Z,91.32
2022-08-20T03:41:15.893Z,90.75
2022-08-20T03:42:19.780Z,91.04
2022-08-20T03:43:22.997Z,91.65
2022-08-20T03:44:26.975Z,91.22
2022-08-20T03:45:30.338Z,91.46
2022-08-20T03:46:34.157Z,91.22
2022-08-20T03:47:37.122Z,91.72
2022-08-20T03:48:40.137Z,91.21
2022-08-20T03:49:43.589Z,91.09
2022-08-20T03:50:49.002Z,91.02
2022-08-20T03:51:57.368Z,91.05
2022-08-20T03:53:01.898Z,91.09
2022-08-20T03:54:05.006Z,90.58
2022-08-20T03:55:10.017Z,90.75
2022-08-20T03:56:13.216Z,90.76
2022-08-20T03:57:16.979Z,90.73
2022-08-20T03:58:19.977Z,90.52
2022-08-20T03:59:22.872Z,90.65
2022-08-20T04:00:31.565Z,90.19
2022-08-20T04:01:44.228Z,90.12
2022-08-20T04:02:49.825Z,90.28
2022-08-20T04:03:55.192Z,90.22
2022-08-20T04:04:58.284Z,90.17
2022-08-20T04:06:01.566Z,90.37
2022-08-20T04:07:17.772Z,90.68
2022-08-20T04:08:27.645Z,90.76
2022-08-20T04:09:30.541Z,90.55
2022-08-20T04:10:33.594Z,90.84
2022-08-20T04:11:37.605Z,91.12
2022-08-20T04:12:42.046Z,90.68
2022-08-20T04:13:59.146Z,90.81
2022-08-20T04:15:05.513Z,91.34
2022-08-20T04:16:13.348Z,92.17
2022-08-20T04:17:19.300Z,92.19
2022-08-20T04:18:24.595Z,92.76
2022-08-20T04:19:31.212Z,92.24
2022-08-20T04:20:38.827Z,92.39
2022-08-20T04:21:41.836Z,93.16
2022-08-20T04:22:58.351Z,93.16
2022-08-20T04:24:04.700Z,93.36
2022-08-20T04:25:10.857Z,93.16
2022-08-20T04:26:20.278Z,92.64
2022-08-20T04:27:23.144Z,92.24
2022-08-20T04:28:30.446Z,91.68
2022-08-20T04:29:35.523Z,91.69
2022-08-20T04:30:38.757Z,92.37
2022-08-20T04:31:46.464Z,92.56
2022-08-20T04:32:50.276Z,92.57
2022-08-20T04:33:53.961Z,91.61
2022-08-20T04:34:57.661Z,90.55
2022-08-20T04:36:02.932Z,90.06
2022-08-20T04:37:06.541Z,90.69
2022-08-20T04:38:22.720Z,90.69
2022-08-20T04:39:25.860Z,91.12
2022-08-20T04:40:48.269Z,89.49
2022-08-20T04:41:57.095Z,91.24
2022-08-20T04:43:05.435Z,91.80
2022-08-20T04:44:09.446Z,92.12
2022-08-20T04:45:12.382Z,92.25
2022-08-20T04:46:15.698Z,91.36
2022-08-20T04:47:25.421Z,90.75
2022-08-20T04:48:39.893Z,90.24
2022-08-20T04:49:43.514Z,89.69
2022-08-20T04:50:49.736Z,89.47
2022-08-20T04:51:54.832Z,90.96
2022-08-20T04:53:00.279Z,91.09
2022-08-20T04:54:04.095Z,91.31
2022-08-20T04:55:07.921Z,90.73
2022-08-20T04:56:11.529Z,90.66
2022-08-20T04:57:14.561Z,90.34
2022-08-20T04:58:38.584Z,91.47
2022-08-20T04:59:41.530Z,91.13
2022-08-20T05:00:50.307Z,91.03
2022-08-20T05:01:53.403Z,91.41
2022-08-20T05:02:56.250Z,90.12
2022-08-20T05:04:00.268Z,87.14
2022-08-20T05:05:03.228Z,89.05
2022-08-20T05:06:08.941Z,89.88
2022-08-20T05:07:13.701Z,91.65
2022-08-20T05:08:20.020Z,89.48
2022-08-20T05:09:23.314Z,89.29
2022-08-20T05:10:26.868Z,89.39
2022-08-20T05:11:33.808Z,89.40
2022-08-20T05:12:42.331Z,90.12
2022-08-20T05:13:59.636Z,89.23
2022-08-20T05:15:02.593Z,89.74
2022-08-20T05:16:05.778Z,90.03
2022-08-20T05:17:09.785Z,90.30
2022-08-20T05:18:13.469Z,90.35
2022-08-20T05:19:17.720Z,89.85
2022-08-20T05:20:21.310Z,89.69
2022-08-20T05:21:24.263Z,89.17
2022-08-20T05:22:31.124Z,89.39
2022-08-20T05:23:36.674Z,88.56
2022-08-20T05:24:39.882Z,87.91
2022-08-20T05:25:45.289Z,87.62
2022-08-20T05:26:48.166Z,88.30
2022-08-20T05:27:57.211Z,89.89
2022-08-20T05:29:00.380Z,88.72
2022-08-20T05:30:08.357Z,88.67
2022-08-20T05:31:15.603Z,87.65
2022-08-20T05:32:18.538Z,87.72
2022-08-20T05:33:23.262Z,86.40
2022-08-20T05:34:26.679Z,86.82
2022-08-20T05:35:30.258Z,85.87
2022-08-20T05:36:33.307Z,85.31
2022-08-20T05:37:38.267Z,86.26
2022-08-20T05:38:41.096Z,85.56
2022-08-20T05:39:52.996Z,85.18
2022-08-20T05:40:56.145Z,85.42
2022-08-20T05:41:59.503Z,84.85
2022-08-20T05:43:04.889Z,83.33
2022-08-20T05:44:15.844Z,84.31
2022-08-20T05:45:18.985Z,85.12
2022-08-20T05:46:23.212Z,85.63
2022-08-20T05:47:28.688Z,85.13
2022-08-20T05:48:35.832Z,85.38
2022-08-20T05:49:38.823Z,85.79
2022-08-20T05:50:43.748Z,86.90
2022-08-20T05:51:47.573Z,86.60
2022-08-20T05:52:51.076Z,84.86
2022-08-20T05:53:54.040Z,86.61
2022-08-20T05:54:57.018Z,86.31
2022-08-20T05:56:02.023Z,85.56
2022-08-20T05:57:05.341Z,85.56
2022-08-20T05:58:17.244Z,84.71
2022-08-20T05:59:24.114Z,85.32
2022-08-20T06:00:29.288Z,85.47
2022-08-20T06:01:34.701Z,84.80
2022-08-20T06:02:56.391Z,83.86
2022-08-20T06:04:18.159Z,83.54
2022-08-20T06:05:21.289Z,84.69
2022-08-20T06:06:46.371Z,85.39
2022-08-20T06:07:49.203Z,85.70
2022-08-20T06:08:52.124Z,87.14
2022-08-20T06:09:55.095Z,86.86
2022-08-20T06:10:58.355Z,86.88
2022-08-20T06:12:04.545Z,87.16
2022-08-20T06:13:07.883Z,86.71
2022-08-20T06:14:11.299Z,86.70
2022-08-20T06:15:14.764Z,85.71
2022-08-20T06:16:17.721Z,86.24
2022-08-20T06:17:22.167Z,86.09
2022-08-20T06:18:27.679Z,85.51
2022-08-20T06:19:32.526Z,84.55
2022-08-20T06:20:38.600Z,83.73
2022-08-20T06:21:41.659Z,83.32
2022-08-20T06:22:45.299Z,84.30
2022-08-20T06:23:57.276Z,84.06
2022-08-20T06:25:04.263Z,83.34
2022-08-20T06:26:09.615Z,83.16
2022-08-20T06:27:15.508Z,84.12
2022-08-20T06:28:18.975Z,84.33
2022-08-20T06:29:21.979Z,83.75
2022-08-20T06:30:25.683Z,83.46
2022-08-20T06:31:29.425Z,83.63
2022-08-20T06:32:33.917Z,82.95
2022-08-20T06:33:40.472Z,82.88
2022-08-20T06:34:50.202Z,83.19
2022-08-20T06:35:53.971Z,84.15
2022-08-20T06:36:58.661Z,82.27
2022-08-20T06:38:02.020Z,82.66
2022-08-20T06:39:05.081Z,83.12
2022-08-20T06:40:12.589Z,83.15
2022-08-20T06:41:15.616Z,83.73
2022-08-20T06:42:20.794Z,81.91
2022-08-20T06:43:23.997Z,81.17
2022-08-20T06:44:28.693Z,82.08
2022-08-20T06:45:33.249Z,82.59
2022-08-20T06:46:37.137Z,82.86
2022-08-20T06:47:42.280Z,82.78
2022-08-20T06:48:45.259Z,84.69
2022-08-20T06:49:49.180Z,84.93
2022-08-20T06:50:53.495Z,85.08
2022-08-20T06:51:56.625Z,82.70
2022-08-20T06:53:00.165Z,83.34
2022-08-20T06:54:04.153Z,82.43
2022-08-20T06:55:09.514Z,82.51
2022-08-20T06:56:12.952Z,82.98
2022-08-20T06:57:17.442Z,83.28
2022-08-20T06:58:37.017Z,83.49
2022-08-20T06:59:44.455Z,84.40
2022-08-20T07:00:57.172Z,84.70
2022-08-20T07:02:00.234Z,84.32
2022-08-20T07:03:04.113Z,84.00
2022-08-20T07:04:08.679Z,83.24
2022-08-20T07:05:12.860Z,84.36
2022-08-20T07:06:16.760Z,86.58
2022-08-20T07:07:22.870Z,87.17
2022-08-20T07:08:25.880Z,86.76
2022-08-20T07:09:29.220Z,86.94
2022-08-20T07:10:32.346Z,85.82
2022-08-20T07:11:35.603Z,84.51
2022-08-20T07:12:38.635Z,84.20
2022-08-20T07:13:42.274Z,85.53
2022-08-20T07:14:45.227Z,85.21
2022-08-20T07:15:52.987Z,84.40
2022-08-20T07:16:57.164Z,83.59
2022-08-20T07:18:04.428Z,84.32
2022-08-20T07:19:08.650Z,83.89
2022-08-20T07:20:18.469Z,84.01
2022-08-20T07:21:21.299Z,83.00
2022-08-20T07:22:26.365Z,84.09
2022-08-20T07:23:31.797Z,85.57
2022-08-20T07:24:37.875Z,85.97
2022-08-20T07:25:44.711Z,84.99
2022-08-20T07:26:47.592Z,84.82
2022-08-20T07:27:51.037Z,84.92
2022-08-20T07:28:54.910Z,84.25
2022-08-20T07:30:16.655Z,84.25
2022-08-20T07:31:42.164Z,84.91
2022-08-20T07:32:46.162Z,84.65
2022-08-20T07:33:50.946Z,84.36
2022-08-20T07:34:59.619Z,85.11
2022-08-20T07:36:04.611Z,86.41
2022-08-20T07:37:11.380Z,87.87
2022-08-20T07:38:24.320Z,87.57
2022-08-20T07:39:28.505Z,87.48
2022-08-20T07:40:35.645Z,85.18
2022-08-20T07:41:39.837Z,86.30
2022-08-20T07:42:46.249Z,85.22
2022-08-20T07:43:49.324Z,86.72
2022-08-20T07:44:52.758Z,87.31
2022-08-20T07:46:01.255Z,88.63
2022-08-20T07:47:06.715Z,90.68
2022-08-20T07:48:30.991Z,89.83
2022-08-20T07:49:39.517Z,87.45
2022-08-20T07:50:43.123Z,87.64
2022-08-20T07:51:45.977Z,85.75
2022-08-20T07:52:49.144Z,85.48
2022-08-20T07:53:52.922Z,84.97
2022-08-20T07:54:55.882Z,85.62
2022-08-20T07:55:59.426Z,87.40
2022-08-20T07:57:03.664Z,87.99
2022-08-20T07:58:10.607Z,88.27
2022-08-20T07:59:14.109Z,89.46
2022-08-20T08:00:19.593Z,89.83
2022-08-20T08:01:26.575Z,90.00
2022-08-20T08:02:29.537Z,87.70
2022-08-20T08:03:39.449Z,88.83
2022-08-20T08:04:52.316Z,90.43
2022-08-20T08:05:56.961Z,89.87
2022-08-20T08:07:00.806Z,90.31
2022-08-20T08:08:07.333Z,91.73
2022-08-20T08:09:16.462Z,90.29
2022-08-20T08:10:23.541Z,90.72
2022-08-20T08:11:30.395Z,90.96
2022-08-20T08:12:40.687Z,92.39
2022-08-20T08:13:44.600Z,90.97
2022-08-20T08:14:51.435Z,92.32
2022-08-20T08:16:02.065Z,93.36
2022-08-20T08:17:07.430Z,92.98
2022-08-20T08:18:22.082Z,93.67
2022-08-20T08:19:28.599Z,93.25
2022-08-20T08:20:31.765Z,93.89
2022-08-20T08:21:37.358Z,95.34
2022-08-20T08:22:43.153Z,95.71
2022-08-20T08:23:46.119Z,95.02
2022-08-20T08:24:57.425Z,96.88
2022-08-20T08:26:07.309Z,97.74
2022-08-20T08:27:19.116Z,98.46
2022-08-20T08:28:22.306Z,98.97
2022-08-20T08:29:25.203Z,97.51
2022-08-20T08:30:31.548Z,97.43
2022-08-20T08:31:35.425Z,97.01
2022-08-20T08:32:59.056Z,96.75
2022-08-20T08:34:02.092Z,97.18
2022-08-20T08:35:07.823Z,96.75
2022-08-20T08:36:16.387Z,95.42
2022-08-20T08:37:19.219Z,94.85
2022-08-20T08:38:23.915Z,95.97
2022-08-20T08:39:26.703Z,95.87
2022-08-20T08:40:38.120Z,95.85
2022-08-20T08:41:50.349Z,94.65
2022-08-20T08:42:58.943Z,96.11
2022-08-20T08:44:22.232Z,96.13
2022-08-20T08:45:34.589Z,96.65
2022-08-20T08:46:44.990Z,96.84
2022-08-20T08:47:48.389Z,98.54
2022-08-20T08:48:55.312Z,98.05
2022-08-20T08:49:59.028Z,97.28
2022-08-20T08:51:12.624Z,96.58
2022-08-20T08:52:22.920Z,95.85
2022-08-20T08:53:30.820Z,95.94
2022-08-20T08:54:35.408Z,96.16
2022-08-20T08:55:38.253Z,97.02
2022-08-20T08:56:41.330Z,97.41
2022-08-20T08:57:44.486Z,98.29
2022-08-20T08:58:47.462Z,97.34
2022-08-20T09:00:03.525Z,96.88
2022-08-20T09:01:53.914Z,96.52
2022-08-20T09:03:08.198Z,96.90
2022-08-20T09:04:11.788Z,97.33
2022-08-20T09:05:19.588Z,97.93
2022-08-20T09:06:26.403Z,97.24
2022-08-20T09:07:34.088Z,97.36
2022-08-20T09:08:45.124Z,96.98
2022-08-20T09:09:48.140Z,96.53
2022-08-20T09:10:51.308Z,96.07
2022-08-20T09:11:58.303Z,96.48
2022-08-20T09:13:02.653Z,96.43
2022-08-20T09:14:05.685Z,96.10
2022-08-20T09:15:09.097Z,95.73
2022-08-20T09:16:13.551Z,96.25
2022-08-20T09:17:18.424Z,95.31
2022-08-20T09:18:25.350Z,95.38
2022-08-20T09:19:28.715Z,94.76
2022-08-20T09:20:31.790Z,93.99
2022-08-20T09:21:34.827Z,94.75
2022-08-20T09:22:37.906Z,94.45
2022-08-20T09:23:41.617Z,93.86
2022-08-20T09:24:45.597Z,94.40
2022-08-20T09:25:48.627Z,94.08
2022-08-20T09:26:51.847Z,93.68
2022-08-20T09:27:58.569Z,92.77
2022-08-20T09:29:02.485Z,92.71
2022-08-20T09:30:05.912Z,90.91
2022-08-20T09:31:09.412Z,90.50
2022-08-20T09:32:24.190Z,88.73
2022-08-20T09:33:27.500Z,88.76
2022-08-20T09:34:30.510Z,89.21
2022-08-20T09:35:34.700Z,89.50
2022-08-20T09:36:38.098Z,89.70
2022-08-20T09:37:41.417Z,90.72
2022-08-20T09:38:44.525Z,91.29
2022-08-20T09:39:48.288Z,91.90
2022-08-20T09:40:51.223Z,91.22
2022-08-20T09:41:54.218Z,90.77
2022-08-20T09:42:57.579Z,91.47
2022-08-20T09:44:00.574Z,91.94
2022-08-20T09:45:04.700Z,92.75
2022-08-20T09:46:14.041Z,93.23
2022-08-20T09:47:17.799Z,93.36
2022-08-20T09:48:20.986Z,94.35
2022-08-20T09:49:33.423Z,94.75
2022-08-20T09:50:37.706Z,94.48
2022-08-20T09:51:40.766Z,95.03
2022-08-20T09:52:48.772Z,95.69
2022-08-20T09:53:55.145Z,96.29
2022-08-20T09:55:17.475Z,96.26
2022-08-20T09:56:20.716Z,97.34
2022-08-20T09:57:24.129Z,98.47
2022-08-20T09:58:38.746Z,98.44
2022-08-20T09:59:42.154Z,96.89
2022-08-20T10:00:45.213Z,96.86
2022-08-20T10:01:48.103Z,96.71
2022-08-20T10:02:51.119Z,96.11
2022-08-20T10:03:53.997Z,97.16
2022-08-20T10:04:57.520Z,97.90
2022-08-20T10:06:00.587Z,97.88
2022-08-20T10:07:08.602Z,98.36
2022-08-20T10:08:13.231Z,97.81
2022-08-20T10:09:16.543Z,96.73
2022-08-20T10:10:19.473Z,97.97
2022-08-20T10:11:22.401Z,96.64
2022-08-20T10:12:25.283Z,97.32
2022-08-20T10:13:28.250Z,96.80
2022-08-20T10:14:31.635Z,95.74
2022-08-20T10:15:34.706Z,95.83
2022-08-20T10:16:37.974Z,94.50
2022-08-20T10:17:43.399Z,94.32
2022-08-20T10:18:48.395Z,93.91
2022-08-20T10:19:51.286Z,92.40
2022-08-20T10:20:54.170Z,92.44
2022-08-20T10:21:58.203Z,93.31
2022-08-20T10:23:01.382Z,91.84
2022-08-20T10:24:04.268Z,93.60
2022-08-20T10:25:08.171Z,93.12
2022-08-20T10:26:13.040Z,92.24
2022-08-20T10:27:16.223Z,92.15
2022-08-20T10:28:19.195Z,91.15
2022-08-20T10:29:22.086Z,91.96
2022-08-20T10:30:25.739Z,90.67
2022-08-20T10:31:29.189Z,89.74
2022-08-20T10:32:32.343Z,91.24
2022-08-20T10:33:35.360Z,90.88
2022-08-20T10:34:40.593Z,90.42
2022-08-20T10:35:43.541Z,90.45
2022-08-20T10:36:47.251Z,89.95
2022-08-20T10:37:50.336Z,89.52
2022-08-20T10:38:53.413Z,87.20
2022-08-20T10:39:58.597Z,86.16
2022-08-20T10:41:01.752Z,86.10
2022-08-20T10:42:04.667Z,86.84
2022-08-20T10:43:07.599Z,86.59
2022-08-20T10:44:10.627Z,87.00
2022-08-20T10:45:16.249Z,81.54
2022-08-20T10:46:19.042Z,81.92
2022-08-20T10:47:28.696Z,81.03
2022-08-20T10:48:32.454Z,82.33
2022-08-20T10:49:41.375Z,83.41
2022-08-20T10:50:44.312Z,84.90
2022-08-20T10:51:47.231Z,85.32
2022-08-20T10:52:50.762Z,83.16
2022-08-20T10:53:54.158Z,84.83
2022-08-20T10:54:57.008Z,81.53
2022-08-20T10:55:59.925Z,79.83
2022-08-20T10:57:07.544Z,79.94
2022-08-20T10:58:11.340Z,80.21
2022-08-20T10:59:14.984Z,80.39
2022-08-20T11:00:25.874Z,80.55
2022-08-20T11:01:32.649Z,80.34
2022-08-20T11:02:37.209Z,79.65
2022-08-20T11:03:43.659Z,80.69
2022-08-20T11:04:46.833Z,80.42
2022-08-20T11:05:50.063Z,80.83
2022-08-20T11:06:53.155Z,82.76
2022-08-20T11:07:56.850Z,81.83
2022-08-20T11:08:59.931Z,80.42
2022-08-20T11:10:03.389Z,81.56
2022-08-20T11:11:07.274Z,81.96
2022-08-20T11:12:10.912Z,79.39
2022-08-20T11:13:13.867Z,79.14
2022-08-20T11:14:16.967Z,78.36
2022-08-20T11:15:19.870Z,76.63
2022-08-20T11:16:22.771Z,78.57
2022-08-20T11:17:30.317Z,75.96
2022-08-20T11:18:34.318Z,77.48
2022-08-20T11:19:44.704Z,79.59
2022-08-20T11:20:47.605Z,77.80
2022-08-20T11:21:50.485Z,76.85
2022-08-20T11:22:54.852Z,77.07
2022-08-20T11:24:01.061Z,74.83
2022-08-20T11:25:06.556Z,75.44
2022-08-20T11:26:09.941Z,72.90
2022-08-20T11:27:22.257Z,71.30
2022-08-20T11:28:31.265Z,70.27
2022-08-20T11:29:36.661Z,68.81
2022-08-20T11:30:39.861Z,69.23
2022-08-20T11:31:43.158Z,68.32
2022-08-20T11:32:46.194Z,63.87
2022-08-20T11:33:49.111Z,65.28
2022-08-20T11:34:52.401Z,61.96
2022-08-20T11:35:55.370Z,63.64
2022-08-20T11:36:59.484Z,64.74
2022-08-20T11:38:03.731Z,64.61
2022-08-20T11:39:07.014Z,62.63
2022-08-20T11:40:12.452Z,62.15
2022-08-20T11:41:15.525Z,64.21
2022-08-20T11:43:26.954Z,63.28
2022-08-20T11:44:29.893Z,65.21
2022-08-20T11:45:32.993Z,61.92
2022-08-20T11:46:40.746Z,64.12
2022-08-20T11:47:43.622Z,65.53
2022-08-20T11:48:46.995Z,66.07
2022-08-20T11:50:23.124Z,66.84
2022-08-20T11:51:26.301Z,69.15
2022-08-20T11:52:29.724Z,67.60
2022-08-20T11:53:32.707Z,68.59
2022-08-20T11:54:40.721Z,68.70
2022-08-20T11:55:44.433Z,69.42
2022-08-20T11:56:47.748Z,69.85
2022-08-20T11:57:50.710Z,71.39
2022-08-20T11:58:53.669Z,73.59
2022-08-20T11:59:58.414Z,72.52
2022-08-20T12:01:01.428Z,73.09
2022-08-20T12:02:06.121Z,72.77
2022-08-20T12:03:12.546Z,73.17
2022-08-20T12:04:15.778Z,73.59
2022-08-20T12:05:19.887Z,74.47
2022-08-20T12:06:22.896Z,74.56
2022-08-20T12:07:26.581Z,73.33
2022-08-20T12:08:29.811Z,72.66
2022-08-20T12:09:32.788Z,72.69
2022-08-20T12:10:36.892Z,74.31
2022-08-20T12:11:39.824Z,73.44
2022-08-20T12:12:51.430Z,73.31
2022-08-20T12:13:54.478Z,75.58
2022-08-20T12:14:58.242Z,74.58
2022-08-20T12:16:02.653Z,72.75
2022-08-20T12:17:18.005Z,73.44
2022-08-20T12:18:21.619Z,73.99
2022-08-20T12:19:29.973Z,74.29
2022-08-20T12:20:32.960Z,72.15
2022-08-20T12:21:35.971Z,73.33
2022-08-20T12:22:39.265Z,74.11
2022-08-20T12:23:42.414Z,74.93
2022-08-20T12:24:46.230Z,73.71
2022-08-20T12:25:49.922Z,73.16
2022-08-20T12:26:52.832Z,74.00
2022-08-20T12:27:56.871Z,73.48
2022-08-20T12:28:59.850Z,74.10
2022-08-20T12:30:07.222Z,74.61
2022-08-20T12:31:10.557Z,75.85
2022-08-20T12:32:14.032Z,75.61
2022-08-20T12:33:17.030Z,75.65
2022-08-20T12:34:20.000Z,76.27
2022-08-20T12:35:23.303Z,75.51
2022-08-20T12:36:26.742Z,75.59
2022-08-20T12:37:31.785Z,76.11
2022-08-20T12:38:34.768Z,75.17
2022-08-20T12:39:48.276Z,76.20
2022-08-20T12:40:52.428Z,76.15
2022-08-20T12:41:55.967Z,75.07
2022-08-20T12:43:02.225Z,74.18
2022-08-20T12:44:07.341Z,75.98
2022-08-20T12:45:17.424Z,75.16
2022-08-20T12:46:20.328Z,75.60
2022-08-20T12:47:26.703Z,75.25
2022-08-20T12:48:29.701Z,76.00
2022-08-20T12:49:33.746Z,75.89
2022-08-20T12:50:39.423Z,77.15
2022-08-20T12:51:42.410Z,75.91
2022-08-20T12:52:46.518Z,75.69
2022-08-20T12:53:49.354Z,74.58
2022-08-20T12:54:52.615Z,76.52
2022-08-20T12:55:55.548Z,75.06
2022-08-20T12:56:58.645Z,75.55
2022-08-20T12:58:03.443Z,76.34
2022-08-20T12:59:10.715Z,75.11
2022-08-20T13:00:16.167Z,75.31
2022-08-20T13:01:19.529Z,76.11
2022-08-20T13:02:22.711Z,77.26
2022-08-20T13:03:25.656Z,76.20
2022-08-20T13:04:29.498Z,76.41
2022-08-20T13:05:34.277Z,76.71
2022-08-20T13:06:37.178Z,75.55
2022-08-20T13:07:41.750Z,75.94
2022-08-20T13:08:45.001Z,75.89
2022-08-20T13:09:47.997Z,76.08
2022-08-20T13:10:51.053Z,75.15
2022-08-20T13:11:54.076Z,74.17
2022-08-20T13:12:57.909Z,74.45
2022-08-20T13:14:00.931Z,74.80
2022-08-20T13:15:05.309Z,75.36
2022-08-20T13:16:08.606Z,76.50
2022-08-20T13:17:11.631Z,74.88
2022-08-20T13:18:14.978Z,74.26
2022-08-20T13:19:17.974Z,76.15
2022-08-20T13:20:21.593Z,74.91
2022-08-20T13:21:24.744Z,74.30
2022-08-20T13:22:27.636Z,76.34
2022-08-20T13:23:30.601Z,76.07
2022-08-20T13:24:34.183Z,74.83
2022-08-20T13:25:37.153Z,74.78
2022-08-20T13:26:40.855Z,75.60
2022-08-20T13:27:45.343Z,74.82
2022-08-20T13:28:48.375Z,74.13
2022-08-20T13:29:58.593Z,73.65
2022-08-20T13:31:02.486Z,76.16
2022-08-20T13:32:06.446Z,74.80
2022-08-20T13:33:09.457Z,74.52
2022-08-20T13:34:12.884Z,72.96
2022-08-20T13:35:16.408Z,69.71
2022-08-20T13:36:19.274Z,68.56
2022-08-20T13:37:27.323Z,71.78
2022-08-20T13:38:30.273Z,69.40
2022-08-20T13:39:33.158Z,67.42
2022-08-20T13:40:39.059Z,71.78
2022-08-20T13:41:42.136Z,65.56
2022-08-20T13:42:45.156Z,62.97
2022-08-20T13:43:48.136Z,67.32
2022-08-20T13:44:51.377Z,70.11
2022-08-20T13:45:54.330Z,67.56
2022-08-20T13:46:57.300Z,66.46
2022-08-20T13:48:00.425Z,67.09
2022-08-20T13:49:03.395Z,67.23
2022-08-20T13:50:10.343Z,69.09
2022-08-20T13:51:13.375Z,66.11
2022-08-20T13:52:22.191Z,67.34
2022-08-20T13:53:27.174Z,65.47
2022-08-20T13:54:30.590Z,65.50
2022-08-20T13:55:34.761Z,66.39
2022-08-20T13:56:41.670Z,65.57
2022-08-20T13:57:46.214Z,65.19
2022-08-20T13:58:49.419Z,64.91
2022-08-20T13:59:58.506Z,65.26
2022-08-20T14:01:01.563Z,63.50
2022-08-20T14:02:07.417Z,64.17
2022-08-20T14:03:12.376Z,66.32
2022-08-20T14:04:16.767Z,65.08
2022-08-20T14:05:19.808Z,67.23
2022-08-20T14:06:22.890Z,67.61
2022-08-20T14:07:32.542Z,66.47